AKDT,Max TemperatureF,Mean TemperatureF,Min TemperatureF,Max Dew PointF,MeanDew PointF,Min DewpointF,Max Humidity, Mean Humidity, Min Humidity, Max Sea Level PressureIn, Mean Sea Level PressureIn, Min Sea Level PressureIn, Max VisibilityMiles, Mean VisibilityMiles, Min VisibilityMiles, Max Wind SpeedMPH, Mean Wind SpeedMPH, Max Gust SpeedMPH,PrecipitationIn, CloudCover, Events, WindDirDegrees
2013-7-1,42,40,39,41,39,37,100,91,81,29.29,29.25,29.23,10,6,0,20,14,25,0.00,8,,85
2013-7-2,41,39,37,41,38,37,100,94,93,29.48,29.38,29.27,10,3,0,13,10,,0.00,8,,76
2013-7-3,39,38,37,39,38,36,100,95,93,29.67,29.58,29.49,10,3,0,9,6,,0.00,8,,360
2013-7-4,46,42,37,43,39,36,100,87,71,29.73,29.71,29.67,10,9,0,9,4,,0.00,8,,50
2013-7-5,46,44,42,41,40,39,87,83,76,29.83,29.78,29.73,10,10,5,17,6,21,0.16,8,,186
2013-7-6,42,40,39,41,39,37,100,92,87,29.86,29.85,29.83,10,6,0,8,3,,0.00,8,,19
2013-7-7,46,42,37,43,40,36,100,90,76,29.86,29.82,29.79,10,6,0,10,7,,0.00,7,,276
2013-7-8,51,45,39,45,40,37,100,91,71,29.99,29.88,29.80,10,5,0,16,5,,0.00,6,,277
2013-7-9,48,45,42,43,41,39,93,86,81,30.13,30.08,29.99,10,10,10,20,15,22,0.00,3,,260
2013-7-10,50,47,44,45,43,41,93,87,81,30.13,30.10,30.03,10,10,8,14,9,17,0.06,8,,136
2013-7-11,51,48,44,46,44,41,93,87,76,30.08,30.04,30.02,10,10,3,16,7,22,0.19,8,,146
2013-7-12,48,45,42,45,44,43,100,92,87,30.12,30.10,30.05,10,5,0,13,7,,0.00,6,,78
2013-7-13,60,52,44,54,45,39,93,78,55,30.05,29.92,29.78,10,10,10,23,13,29,0.00,2,,94
2013-7-14,53,50,46,48,44,43,88,82,71,29.91,29.80,29.69,10,9,4,33,17,41,0.00,7,,160
2013-7-15,53,50,46,45,43,39,87,79,62,29.97,29.95,29.91,10,10,10,28,14,32,0.00,7,,185
2013-7-16,51,48,46,45,43,41,93,82,71,29.99,29.96,29.94,10,10,10,33,14,44,0.04,5,,182
2013-7-17,57,50,44,48,43,39,93,80,67,30.03,29.99,29.94,10,10,10,30,9,37,0.00,6,,68
2013-7-18,53,48,42,45,43,41,93,88,72,30.16,30.08,30.03,10,8,0,13,7,18,0.00,6,,71
2013-7-19,51,48,44,46,44,43,100,90,82,30.23,30.19,30.16,10,10,6,15,5,,0.01,8,,348
2013-7-20,55,50,46,45,44,43,93,77,67,30.24,30.17,30.12,10,10,10,29,18,36,0.00,4,,219
2013-7-21,60,53,46,48,44,43,93,75,55,30.14,30.10,30.07,10,10,10,32,24,40,0.02,1,,219
2013-7-22,53,48,44,46,44,39,93,81,62,30.17,30.11,30.07,10,10,8,30,24,38,0.00,1,,257
2013-7-23,51,48,44,46,45,43,93,87,76,30.22,30.19,30.16,10,10,3,23,17,28,0.00,2,,271
2013-7-24,46,44,41,45,41,37,93,86,76,30.30,30.26,30.22,10,6,0,15,11,,0.00,7,,1
2013-7-25,59,50,42,54,47,37,93,87,76,30.28,30.25,30.22,10,10,7,17,7,22,0.00,7,,265
2013-7-26,64,58,51,55,52,48,94,84,68,30.29,30.26,30.23,10,10,9,17,11,20,0.00,5,,236
2013-7-27,64,56,48,55,51,45,94,79,68,30.28,30.21,30.15,10,10,10,20,6,25,0.00,3,,200
2013-7-28,53,50,48,48,46,45,87,82,76,30.20,30.17,30.13,10,10,10,26,17,32,0.00,6,,222
2013-7-29,57,54,51,50,47,45,88,77,63,30.25,30.22,30.18,10,10,10,23,18,31,0.00,8,,212
2013-7-30,57,52,48,48,45,43,93,72,63,30.28,30.26,30.22,10,10,8,17,10,,0.00,8,,199
2013-7-31,53,50,46,48,47,45,93,86,77,30.25,30.16,30.02,10,10,8,12,3,,0.00,7,,63